sensor_id;sensor_type;location;lat;lon;timestamp;P1;durP1;ratioP1;P2;durP2;ratioP2
13439;SDS011;6792;57.698;11.946;2023-05-07T00:00:20;3.30;;;1.33;;
13439;SDS011;6792;57.698;11.946;2023-05-07T00:02:50;2.77;;;1.20;;
13439;SDS011;6792;57.698;11.946;2023-05-07T00:05:19;1.67;;;1.20;;
13439;SDS011;6792;57.698;11.946;2023-05-07T00:07:48;3.17;;;1.23;;
13439;SDS011;6792;57.698;11.946;2023-05-07T00:10:19;2.07;;;1.20;;
13439;SDS011;6792;57.698;11.946;2023-05-07T00:12:48;1.97;;;0.90;;
13439;SDS011;6792;57.698;11.946;2023-05-07T00:15:17;2.23;;;1.40;;
13439;SDS011;6792;57.698;11.946;2023-05-07T00:17:49;2.90;;;1.03;;
13439;SDS011;6792;57.698;11.946;2023-05-07T00:20:20;1.80;;;1.33;;
13439;SDS011;6792;57.698;11.946;2023-05-07T00:22:50;1.27;;;1.00;;
13439;SDS011;6792;57.698;11.946;2023-05-07T00:25:19;2.07;;;1.60;;
13439;SDS011;6792;57.698;11.946;2023-05-07T00:27:48;1.83;;;1.30;;
13439;SDS011;6792;57.698;11.946;2023-05-07T00:30:18;1.73;;;0.93;;
13439;SDS011;6792;57.698;11.946;2023-05-07T00:32:47;3.77;;;1.10;;
13439;SDS011;6792;57.698;11.946;2023-05-07T00:35:17;3.40;;;1.33;;
13439;SDS011;6792;57.698;11.946;2023-05-07T00:37:46;1.33;;;1.03;;
13439;SDS011;6792;57.698;11.946;2023-05-07T00:40:16;1.63;;;1.20;;
13439;SDS011;6792;57.698;11.946;2023-05-07T00:42:45;0.67;;;0.60;;
13439;SDS011;6792;57.698;11.946;2023-05-07T00:45:17;2.97;;;1.53;;
13439;SDS011;6792;57.698;11.946;2023-05-07T00:47:49;2.07;;;1.07;;
13439;SDS011;6792;57.698;11.946;2023-05-07T00:50:18;1.90;;;1.30;;
13439;SDS011;6792;57.698;11.946;2023-05-07T00:52:50;2.63;;;0.97;;
13439;SDS011;6792;57.698;11.946;2023-05-07T00:55:22;1.07;;;0.80;;
13439;SDS011;6792;57.698;11.946;2023-05-07T00:57:52;1.10;;;0.90;;
13439;SDS011;6792;57.698;11.946;2023-05-07T01:00:24;0.73;;;0.73;;
13439;SDS011;6792;57.698;11.946;2023-05-07T01:02:53;1.40;;;0.90;;
13439;SDS011;6792;57.698;11.946;2023-05-07T01:05:23;1.77;;;1.10;;
13439;SDS011;6792;57.698;11.946;2023-05-07T01:07:53;3.87;;;1.27;;
13439;SDS011;6792;57.698;11.946;2023-05-07T01:10:24;1.77;;;1.10;;
13439;SDS011;6792;57.698;11.946;2023-05-07T01:12:57;1.03;;;0.70;;
13439;SDS011;6792;57.698;11.946;2023-05-07T01:15:28;0.77;;;0.77;;
13439;SDS011;6792;57.698;11.946;2023-05-07T01:17:57;1.27;;;0.90;;
13439;SDS011;6792;57.698;11.946;2023-05-07T01:20:27;2.10;;;1.20;;
13439;SDS011;6792;57.698;11.946;2023-05-07T01:22:57;2.30;;;1.23;;
13439;SDS011;6792;57.698;11.946;2023-05-07T01:25:30;4.20;;;1.13;;
13439;SDS011;6792;57.698;11.946;2023-05-07T01:28:00;2.00;;;1.23;;
13439;SDS011;6792;57.698;11.946;2023-05-07T01:30:29;0.97;;;0.70;;
13439;SDS011;6792;57.698;11.946;2023-05-07T01:33:01;0.77;;;0.50;;
13439;SDS011;6792;57.698;11.946;2023-05-07T01:35:34;0.90;;;0.90;;
13439;SDS011;6792;57.698;11.946;2023-05-07T01:38:05;2.90;;;1.10;;
13439;SDS011;6792;57.698;11.946;2023-05-07T01:40:36;1.70;;;1.00;;
13439;SDS011;6792;57.698;11.946;2023-05-07T01:43:05;1.47;;;0.83;;
13439;SDS011;6792;57.698;11.946;2023-05-07T01:45:36;0.70;;;0.70;;
13439;SDS011;6792;57.698;11.946;2023-05-07T01:48:06;2.27;;;1.13;;
13439;SDS011;6792;57.698;11.946;2023-05-07T01:50:37;1.00;;;0.90;;
13439;SDS011;6792;57.698;11.946;2023-05-07T01:53:08;0.90;;;0.77;;
13439;SDS011;6792;57.698;11.946;2023-05-07T01:55:37;2.20;;;0.80;;
13439;SDS011;6792;57.698;11.946;2023-05-07T01:58:09;1.67;;;0.93;;
13439;SDS011;6792;57.698;11.946;2023-05-07T02:00:38;3.90;;;0.93;;
13439;SDS011;6792;57.698;11.946;2023-05-07T02:03:07;3.73;;;1.03;;
13439;SDS011;6792;57.698;11.946;2023-05-07T02:05:37;1.00;;;0.87;;
13439;SDS011;6792;57.698;11.946;2023-05-07T02:08:06;0.87;;;0.87;;
13439;SDS011;6792;57.698;11.946;2023-05-07T02:10:35;1.00;;;0.90;;
13439;SDS011;6792;57.698;11.946;2023-05-07T02:13:04;1.13;;;0.90;;
13439;SDS011;6792;57.698;11.946;2023-05-07T02:15:34;2.37;;;1.00;;
13439;SDS011;6792;57.698;11.946;2023-05-07T02:18:04;3.50;;;0.80;;
13439;SDS011;6792;57.698;11.946;2023-05-07T02:20:34;2.40;;;0.80;;
13439;SDS011;6792;57.698;11.946;2023-05-07T02:23:03;1.10;;;1.00;;
13439;SDS011;6792;57.698;11.946;2023-05-07T02:25:32;2.73;;;1.00;;
13439;SDS011;6792;57.698;11.946;2023-05-07T02:28:02;1.20;;;0.80;;
13439;SDS011;6792;57.698;11.946;2023-05-07T02:30:31;0.80;;;0.80;;
13439;SDS011;6792;57.698;11.946;2023-05-07T02:33:00;1.70;;;0.93;;
13439;SDS011;6792;57.698;11.946;2023-05-07T02:35:29;2.10;;;1.00;;
13439;SDS011;6792;57.698;11.946;2023-05-07T02:37:59;0.80;;;0.80;;
13439;SDS011;6792;57.698;11.946;2023-05-07T02:40:30;2.33;;;0.90;;
13439;SDS011;6792;57.698;11.946;2023-05-07T02:43:00;0.90;;;0.87;;
13439;SDS011;6792;57.698;11.946;2023-05-07T02:45:29;1.20;;;0.80;;
13439;SDS011;6792;57.698;11.946;2023-05-07T02:47:58;2.27;;;1.00;;
13439;SDS011;6792;57.698;11.946;2023-05-07T02:50:28;0.90;;;0.90;;
13439;SDS011;6792;57.698;11.946;2023-05-07T02:52:58;2.53;;;1.17;;
13439;SDS011;6792;57.698;11.946;2023-05-07T02:55:28;1.23;;;0.80;;
13439;SDS011;6792;57.698;11.946;2023-05-07T02:57:57;1.03;;;0.97;;
13439;SDS011;6792;57.698;11.946;2023-05-07T03:00:27;0.90;;;0.90;;
13439;SDS011;6792;57.698;11.946;2023-05-07T03:02:56;3.30;;;1.37;;
13439;SDS011;6792;57.698;11.946;2023-05-07T03:05:25;0.80;;;0.80;;
13439;SDS011;6792;57.698;11.946;2023-05-07T03:07:57;1.07;;;0.77;;
13439;SDS011;6792;57.698;11.946;2023-05-07T03:10:30;1.90;;;1.20;;
13439;SDS011;6792;57.698;11.946;2023-05-07T03:13:00;2.77;;;0.90;;
13439;SDS011;6792;57.698;11.946;2023-05-07T03:15:30;1.53;;;0.93;;
13439;SDS011;6792;57.698;11.946;2023-05-07T03:17:59;0.77;;;0.77;;
13439;SDS011;6792;57.698;11.946;2023-05-07T03:20:28;2.77;;;1.00;;
13439;SDS011;6792;57.698;11.946;2023-05-07T03:22:59;1.17;;;1.00;;
13439;SDS011;6792;57.698;11.946;2023-05-07T03:25:28;1.20;;;0.93;;
13439;SDS011;6792;57.698;11.946;2023-05-07T03:27:57;1.33;;;1.00;;
13439;SDS011;6792;57.698;11.946;2023-05-07T03:30:27;0.90;;;0.90;;
13439;SDS011;6792;57.698;11.946;2023-05-07T03:32:58;1.90;;;1.00;;
13439;SDS011;6792;57.698;11.946;2023-05-07T03:35:27;0.97;;;0.93;;
13439;SDS011;6792;57.698;11.946;2023-05-07T03:37:56;1.20;;;1.10;;
13439;SDS011;6792;57.698;11.946;2023-05-07T03:40:27;3.03;;;1.03;;
13439;SDS011;6792;57.698;11.946;2023-05-07T03:42:57;2.40;;;1.10;;
13439;SDS011;6792;57.698;11.946;2023-05-07T03:45:27;2.03;;;1.37;;
13439;SDS011;6792;57.698;11.946;2023-05-07T03:47:56;2.73;;;0.90;;
13439;SDS011;6792;57.698;11.946;2023-05-07T03:50:32;4.03;;;1.13;;
13439;SDS011;6792;57.698;11.946;2023-05-07T03:53:01;1.07;;;0.90;;
13439;SDS011;6792;57.698;11.946;2023-05-07T03:55:31;2.70;;;1.20;;
13439;SDS011;6792;57.698;11.946;2023-05-07T03:58:00;2.33;;;0.90;;
13439;SDS011;6792;57.698;11.946;2023-05-07T04:00:29;1.30;;;1.00;;
13439;SDS011;6792;57.698;11.946;2023-05-07T04:03:00;1.40;;;1.00;;
13439;SDS011;6792;57.698;11.946;2023-05-07T04:05:33;2.30;;;1.20;;
13439;SDS011;6792;57.698;11.946;2023-05-07T04:08:03;2.60;;;1.00;;
13439;SDS011;6792;57.698;11.946;2023-05-07T04:10:32;0.80;;;0.80;;
13439;SDS011;6792;57.698;11.946;2023-05-07T04:13:02;1.07;;;1.00;;
13439;SDS011;6792;57.698;11.946;2023-05-07T04:15:31;1.43;;;0.80;;
13439;SDS011;6792;57.698;11.946;2023-05-07T04:18:00;2.47;;;1.10;;
13439;SDS011;6792;57.698;11.946;2023-05-07T04:20:29;1.43;;;1.00;;
13439;SDS011;6792;57.698;11.946;2023-05-07T04:23:01;4.13;;;1.07;;
13439;SDS011;6792;57.698;11.946;2023-05-07T04:25:30;3.30;;;1.20;;
13439;SDS011;6792;57.698;11.946;2023-05-07T04:28:00;1.60;;;1.10;;
13439;SDS011;6792;57.698;11.946;2023-05-07T04:30:32;2.77;;;1.20;;
13439;SDS011;6792;57.698;11.946;2023-05-07T04:33:01;0.93;;;0.93;;
13439;SDS011;6792;57.698;11.946;2023-05-07T04:35:31;2.20;;;1.30;;
13439;SDS011;6792;57.698;11.946;2023-05-07T04:38:00;1.47;;;0.83;;
13439;SDS011;6792;57.698;11.946;2023-05-07T04:40:30;1.03;;;1.00;;
13439;SDS011;6792;57.698;11.946;2023-05-07T04:42:59;1.73;;;1.10;;
13439;SDS011;6792;57.698;11.946;2023-05-07T04:45:29;1.37;;;0.77;;
13439;SDS011;6792;57.698;11.946;2023-05-07T04:47:59;2.13;;;1.00;;
13439;SDS011;6792;57.698;11.946;2023-05-07T04:50:28;2.03;;;0.90;;
13439;SDS011;6792;57.698;11.946;2023-05-07T04:52:58;5.13;;;1.00;;
13439;SDS011;6792;57.698;11.946;2023-05-07T04:55:28;2.70;;;0.97;;
13439;SDS011;6792;57.698;11.946;2023-05-07T04:57:58;1.17;;;1.00;;
13439;SDS011;6792;57.698;11.946;2023-05-07T05:00:28;4.20;;;1.10;;
13439;SDS011;6792;57.698;11.946;2023-05-07T05:02:57;1.17;;;0.93;;
13439;SDS011;6792;57.698;11.946;2023-05-07T05:05:27;2.00;;;1.00;;
13439;SDS011;6792;57.698;11.946;2023-05-07T05:07:56;0.87;;;0.83;;
13439;SDS011;6792;57.698;11.946;2023-05-07T05:10:25;1.63;;;1.10;;
13439;SDS011;6792;57.698;11.946;2023-05-07T05:12:55;4.20;;;1.00;;
13439;SDS011;6792;57.698;11.946;2023-05-07T05:15:24;2.00;;;1.00;;
13439;SDS011;6792;57.698;11.946;2023-05-07T05:17:53;1.83;;;0.80;;
13439;SDS011;6792;57.698;11.946;2023-05-07T05:20:22;2.57;;;1.00;;
13439;SDS011;6792;57.698;11.946;2023-05-07T05:22:54;2.73;;;1.20;;
13439;SDS011;6792;57.698;11.946;2023-05-07T05:25:23;1.30;;;0.90;;
13439;SDS011;6792;57.698;11.946;2023-05-07T05:27:53;2.37;;;1.13;;
13439;SDS011;6792;57.698;11.946;2023-05-07T05:30:23;1.10;;;1.00;;
13439;SDS011;6792;57.698;11.946;2023-05-07T05:32:52;1.27;;;0.97;;
13439;SDS011;6792;57.698;11.946;2023-05-07T05:35:21;1.53;;;1.10;;
13439;SDS011;6792;57.698;11.946;2023-05-07T05:37:50;2.03;;;0.90;;
13439;SDS011;6792;57.698;11.946;2023-05-07T05:40:22;1.80;;;0.83;;
13439;SDS011;6792;57.698;11.946;2023-05-07T05:42:51;5.47;;;1.07;;
13439;SDS011;6792;57.698;11.946;2023-05-07T05:45:24;4.43;;;0.90;;
13439;SDS011;6792;57.698;11.946;2023-05-07T05:47:53;0.90;;;0.90;;
13439;SDS011;6792;57.698;11.946;2023-05-07T05:50:24;2.30;;;1.37;;
13439;SDS011;6792;57.698;11.946;2023-05-07T05:52:53;2.73;;;1.20;;
13439;SDS011;6792;57.698;11.946;2023-05-07T05:55:24;1.77;;;1.00;;
13439;SDS011;6792;57.698;11.946;2023-05-07T05:57:53;2.77;;;0.90;;
13439;SDS011;6792;57.698;11.946;2023-05-07T06:00:23;4.17;;;0.83;;
13439;SDS011;6792;57.698;11.946;2023-05-07T06:02:53;3.73;;;1.00;;
13439;SDS011;6792;57.698;11.946;2023-05-07T06:05:22;2.80;;;1.17;;
13439;SDS011;6792;57.698;11.946;2023-05-07T06:07:51;1.70;;;1.03;;
13439;SDS011;6792;57.698;11.946;2023-05-07T06:10:20;0.90;;;0.90;;
13439;SDS011;6792;57.698;11.946;2023-05-07T06:12:50;1.07;;;1.00;;
13439;SDS011;6792;57.698;11.946;2023-05-07T06:15:19;2.20;;;1.03;;
13439;SDS011;6792;57.698;11.946;2023-05-07T06:17:49;2.23;;;0.97;;
13439;SDS011;6792;57.698;11.946;2023-05-07T06:20:18;2.67;;;1.20;;
13439;SDS011;6792;57.698;11.946;2023-05-07T06:22:47;1.83;;;1.10;;
13439;SDS011;6792;57.698;11.946;2023-05-07T06:25:19;1.07;;;0.80;;
13439;SDS011;6792;57.698;11.946;2023-05-07T06:27:48;1.20;;;1.00;;
13439;SDS011;6792;57.698;11.946;2023-05-07T06:30:17;1.67;;;1.00;;
13439;SDS011;6792;57.698;11.946;2023-05-07T06:32:48;1.07;;;1.00;;
13439;SDS011;6792;57.698;11.946;2023-05-07T06:35:19;3.90;;;0.70;;
13439;SDS011;6792;57.698;11.946;2023-05-07T06:37:49;1.27;;;1.00;;
13439;SDS011;6792;57.698;11.946;2023-05-07T06:40:18;3.90;;;1.10;;
13439;SDS011;6792;57.698;11.946;2023-05-07T06:42:49;2.43;;;1.20;;
13439;SDS011;6792;57.698;11.946;2023-05-07T06:45:19;1.10;;;0.90;;
13439;SDS011;6792;57.698;11.946;2023-05-07T06:47:52;2.17;;;1.37;;
13439;SDS011;6792;57.698;11.946;2023-05-07T06:50:21;1.10;;;0.80;;
13439;SDS011;6792;57.698;11.946;2023-05-07T06:52:53;1.13;;;1.03;;
13439;SDS011;6792;57.698;11.946;2023-05-07T06:55:22;1.37;;;0.87;;
13439;SDS011;6792;57.698;11.946;2023-05-07T06:57:51;2.00;;;1.13;;
13439;SDS011;6792;57.698;11.946;2023-05-07T07:00:21;3.87;;;0.97;;
13439;SDS011;6792;57.698;11.946;2023-05-07T07:02:54;1.30;;;1.00;;
13439;SDS011;6792;57.698;11.946;2023-05-07T07:05:23;1.00;;;0.90;;
13439;SDS011;6792;57.698;11.946;2023-05-07T07:07:53;3.40;;;1.37;;
13439;SDS011;6792;57.698;11.946;2023-05-07T07:10:22;0.83;;;0.80;;
13439;SDS011;6792;57.698;11.946;2023-05-07T07:12:53;1.70;;;1.10;;
13439;SDS011;6792;57.698;11.946;2023-05-07T07:15:22;2.90;;;0.97;;
13439;SDS011;6792;57.698;11.946;2023-05-07T07:17:52;1.87;;;0.73;;
13439;SDS011;6792;57.698;11.946;2023-05-07T07:20:23;0.60;;;0.60;;
13439;SDS011;6792;57.698;11.946;2023-05-07T07:22:52;1.53;;;0.70;;
13439;SDS011;6792;57.698;11.946;2023-05-07T07:25:22;1.33;;;0.83;;
13439;SDS011;6792;57.698;11.946;2023-05-07T07:27:50;3.47;;;0.80;;
13439;SDS011;6792;57.698;11.946;2023-05-07T07:30:19;1.57;;;1.10;;
13439;SDS011;6792;57.698;11.946;2023-05-07T07:32:49;1.13;;;1.03;;
13439;SDS011;6792;57.698;11.946;2023-05-07T07:35:18;2.87;;;0.83;;
13439;SDS011;6792;57.698;11.946;2023-05-07T07:37:48;2.53;;;1.03;;
13439;SDS011;6792;57.698;11.946;2023-05-07T07:40:17;1.63;;;0.90;;
13439;SDS011;6792;57.698;11.946;2023-05-07T07:42:47;1.23;;;1.00;;
13439;SDS011;6792;57.698;11.946;2023-05-07T07:45:16;2.07;;;0.83;;
13439;SDS011;6792;57.698;11.946;2023-05-07T07:47:46;1.37;;;0.90;;
13439;SDS011;6792;57.698;11.946;2023-05-07T07:50:15;1.67;;;1.10;;
13439;SDS011;6792;57.698;11.946;2023-05-07T07:52:46;2.63;;;0.80;;
13439;SDS011;6792;57.698;11.946;2023-05-07T07:55:15;2.10;;;1.20;;
13439;SDS011;6792;57.698;11.946;2023-05-07T07:57:47;1.67;;;1.10;;
13439;SDS011;6792;57.698;11.946;2023-05-07T08:00:17;1.63;;;1.17;;
13439;SDS011;6792;57.698;11.946;2023-05-07T08:02:47;2.53;;;1.20;;
13439;SDS011;6792;57.698;11.946;2023-05-07T08:05:16;2.87;;;1.13;;
13439;SDS011;6792;57.698;11.946;2023-05-07T08:07:46;2.90;;;1.20;;
13439;SDS011;6792;57.698;11.946;2023-05-07T08:10:19;0.93;;;0.90;;
13439;SDS011;6792;57.698;11.946;2023-05-07T08:12:49;1.27;;;0.80;;
13439;SDS011;6792;57.698;11.946;2023-05-07T08:15:18;3.27;;;1.00;;
13439;SDS011;6792;57.698;11.946;2023-05-07T08:17:48;2.67;;;1.07;;
13439;SDS011;6792;57.698;11.946;2023-05-07T08:20:17;0.73;;;0.73;;
13439;SDS011;6792;57.698;11.946;2023-05-07T08:22:46;1.17;;;0.90;;
13439;SDS011;6792;57.698;11.946;2023-05-07T08:25:18;1.20;;;1.10;;
13439;SDS011;6792;57.698;11.946;2023-05-07T08:27:47;1.30;;;0.90;;
13439;SDS011;6792;57.698;11.946;2023-05-07T08:30:17;1.13;;;0.90;;
13439;SDS011;6792;57.698;11.946;2023-05-07T08:32:46;2.43;;;0.83;;
13439;SDS011;6792;57.698;11.946;2023-05-07T08:35:15;1.23;;;0.70;;
13439;SDS011;6792;57.698;11.946;2023-05-07T08:37:46;2.63;;;1.07;;
13439;SDS011;6792;57.698;11.946;2023-05-07T08:40:18;2.97;;;1.00;;
13439;SDS011;6792;57.698;11.946;2023-05-07T08:42:48;1.03;;;0.80;;
13439;SDS011;6792;57.698;11.946;2023-05-07T08:45:19;3.60;;;1.40;;
13439;SDS011;6792;57.698;11.946;2023-05-07T08:47:51;1.13;;;0.90;;
13439;SDS011;6792;57.698;11.946;2023-05-07T08:50:22;1.10;;;1.00;;
13439;SDS011;6792;57.698;11.946;2023-05-07T08:52:53;0.93;;;0.90;;
13439;SDS011;6792;57.698;11.946;2023-05-07T08:55:23;1.73;;;1.13;;
13439;SDS011;6792;57.698;11.946;2023-05-07T08:57:53;2.23;;;0.80;;
13439;SDS011;6792;57.698;11.946;2023-05-07T09:00:24;2.10;;;0.90;;
13439;SDS011;6792;57.698;11.946;2023-05-07T09:02:53;0.80;;;0.80;;
13439;SDS011;6792;57.698;11.946;2023-05-07T09:05:22;2.30;;;0.90;;
13439;SDS011;6792;57.698;11.946;2023-05-07T09:07:52;2.40;;;0.90;;
13439;SDS011;6792;57.698;11.946;2023-05-07T09:10:22;0.83;;;0.83;;
13439;SDS011;6792;57.698;11.946;2023-05-07T09:12:51;2.77;;;1.10;;
13439;SDS011;6792;57.698;11.946;2023-05-07T09:15:20;1.83;;;0.67;;
13439;SDS011;6792;57.698;11.946;2023-05-07T09:17:49;2.40;;;0.80;;
13439;SDS011;6792;57.698;11.946;2023-05-07T09:20:19;1.87;;;0.87;;
13439;SDS011;6792;57.698;11.946;2023-05-07T09:22:48;2.77;;;1.10;;
13439;SDS011;6792;57.698;11.946;2023-05-07T09:25:18;2.40;;;0.93;;
13439;SDS011;6792;57.698;11.946;2023-05-07T09:27:56;7.13;;;1.13;;
13439;SDS011;6792;57.698;11.946;2023-05-07T09:30:29;1.12;;;1.02;;
13439;SDS011;6792;57.698;11.946;2023-05-07T09:33:00;2.43;;;1.00;;
13439;SDS011;6792;57.698;11.946;2023-05-07T09:35:35;1.70;;;0.90;;
13439;SDS011;6792;57.698;11.946;2023-05-07T09:38:08;1.40;;;0.70;;
13439;SDS011;6792;57.698;11.946;2023-05-07T09:40:38;1.10;;;1.00;;
13439;SDS011;6792;57.698;11.946;2023-05-07T09:43:13;2.35;;;0.90;;
13439;SDS011;6792;57.698;11.946;2023-05-07T09:45:47;0.80;;;0.80;;
13439;SDS011;6792;57.698;11.946;2023-05-07T09:48:18;1.75;;;0.80;;
13439;SDS011;6792;57.698;11.946;2023-05-07T09:50:55;5.25;;;1.40;;
13439;SDS011;6792;57.698;11.946;2023-05-07T09:53:29;1.93;;;0.80;;
13439;SDS011;6792;57.698;11.946;2023-05-07T09:56:04;1.00;;;0.90;;
13439;SDS011;6792;57.698;11.946;2023-05-07T09:58:34;1.00;;;0.83;;
13439;SDS011;6792;57.698;11.946;2023-05-07T10:01:15;1.70;;;1.00;;
13439;SDS011;6792;57.698;11.946;2023-05-07T10:04:01;0.98;;;0.82;;
13439;SDS011;6792;57.698;11.946;2023-05-07T10:06:33;1.63;;;0.80;;
13439;SDS011;6792;57.698;11.946;2023-05-07T10:09:04;3.22;;;0.90;;
13439;SDS011;6792;57.698;11.946;2023-05-07T10:11:35;1.92;;;1.00;;
13439;SDS011;6792;57.698;11.946;2023-05-07T10:14:05;1.37;;;0.90;;
13439;SDS011;6792;57.698;11.946;2023-05-07T10:16:35;6.03;;;1.00;;
13439;SDS011;6792;57.698;11.946;2023-05-07T10:19:06;1.22;;;0.85;;
13439;SDS011;6792;57.698;11.946;2023-05-07T10:21:44;1.92;;;0.80;;
13439;SDS011;6792;57.698;11.946;2023-05-07T10:24:25;1.83;;;0.77;;
13439;SDS011;6792;57.698;11.946;2023-05-07T10:26:57;0.95;;;0.80;;
13439;SDS011;6792;57.698;11.946;2023-05-07T10:29:37;0.70;;;0.60;;
13439;SDS011;6792;57.698;11.946;2023-05-07T10:32:19;0.68;;;0.68;;
13439;SDS011;6792;57.698;11.946;2023-05-07T10:35:03;2.45;;;0.85;;
13439;SDS011;6792;57.698;11.946;2023-05-07T10:37:36;2.42;;;0.90;;
13439;SDS011;6792;57.698;11.946;2023-05-07T10:40:13;2.33;;;0.93;;
13439;SDS011;6792;57.698;11.946;2023-05-07T10:42:59;0.85;;;0.75;;
13439;SDS011;6792;57.698;11.946;2023-05-07T10:45:34;3.90;;;0.72;;
13439;SDS011;6792;57.698;11.946;2023-05-07T10:48:10;2.08;;;0.90;;
13439;SDS011;6792;57.698;11.946;2023-05-07T10:50:46;6.17;;;0.78;;
13439;SDS011;6792;57.698;11.946;2023-05-07T10:53:22;0.88;;;0.88;;
13439;SDS011;6792;57.698;11.946;2023-05-07T11:02:06;2.47;;;1.30;;
13439;SDS011;6792;57.698;11.946;2023-05-07T11:07:54;1.42;;;0.72;;
13439;SDS011;6792;57.698;11.946;2023-05-07T11:10:24;2.00;;;0.57;;
13439;SDS011;6792;57.698;11.946;2023-05-07T11:13:16;0.60;;;0.60;;
13439;SDS011;6792;57.698;11.946;2023-05-07T11:15:47;0.82;;;0.60;;
13439;SDS011;6792;57.698;11.946;2023-05-07T11:18:18;4.58;;;1.15;;
13439;SDS011;6792;57.698;11.946;2023-05-07T11:20:56;4.08;;;1.10;;
13439;SDS011;6792;57.698;11.946;2023-05-07T11:29:15;4.75;;;0.90;;
13439;SDS011;6792;57.698;11.946;2023-05-07T11:31:48;0.70;;;0.60;;
13439;SDS011;6792;57.698;11.946;2023-05-07T11:34:21;2.95;;;0.82;;
13439;SDS011;6792;57.698;11.946;2023-05-07T11:36:52;2.62;;;1.95;;
13439;SDS011;6792;57.698;11.946;2023-05-07T11:39:24;6.37;;;2.92;;
13439;SDS011;6792;57.698;11.946;2023-05-07T11:41:55;6.37;;;3.60;;
13439;SDS011;6792;57.698;11.946;2023-05-07T11:44:25;4.22;;;2.70;;
13439;SDS011;6792;57.698;11.946;2023-05-07T11:46:55;2.60;;;2.33;;
13439;SDS011;6792;57.698;11.946;2023-05-07T11:49:31;2.65;;;2.00;;
13439;SDS011;6792;57.698;11.946;2023-05-07T11:52:10;1.62;;;1.40;;
13439;SDS011;6792;57.698;11.946;2023-05-07T11:54:46;1.67;;;1.30;;
13439;SDS011;6792;57.698;11.946;2023-05-07T11:57:19;1.90;;;1.00;;
13439;SDS011;6792;57.698;11.946;2023-05-07T11:59:53;4.22;;;1.00;;
13439;SDS011;6792;57.698;11.946;2023-05-07T12:02:28;1.40;;;1.00;;
13439;SDS011;6792;57.698;11.946;2023-05-07T12:04:59;2.27;;;0.80;;
13439;SDS011;6792;57.698;11.946;2023-05-07T12:07:29;2.33;;;1.57;;
13439;SDS011;6792;57.698;11.946;2023-05-07T12:10:03;1.17;;;1.00;;
13439;SDS011;6792;57.698;11.946;2023-05-07T12:12:39;1.00;;;0.90;;
13439;SDS011;6792;57.698;11.946;2023-05-07T12:15:09;4.30;;;1.10;;
13439;SDS011;6792;57.698;11.946;2023-05-07T12:17:42;1.27;;;1.20;;
13439;SDS011;6792;57.698;11.946;2023-05-07T12:20:16;3.33;;;1.22;;
13439;SDS011;6792;57.698;11.946;2023-05-07T12:22:48;2.00;;;0.95;;
13439;SDS011;6792;57.698;11.946;2023-05-07T12:25:19;2.25;;;0.93;;
13439;SDS011;6792;57.698;11.946;2023-05-07T12:27:51;2.17;;;0.75;;
13439;SDS011;6792;57.698;11.946;2023-05-07T12:30:28;1.52;;;0.90;;
13439;SDS011;6792;57.698;11.946;2023-05-07T12:32:57;5.58;;;1.20;;
13439;SDS011;6792;57.698;11.946;2023-05-07T12:35:27;1.50;;;1.20;;
13439;SDS011;6792;57.698;11.946;2023-05-07T12:37:57;5.87;;;1.30;;
13439;SDS011;6792;57.698;11.946;2023-05-07T12:40:35;5.05;;;1.40;;
13439;SDS011;6792;57.698;11.946;2023-05-07T12:43:08;1.27;;;0.95;;
13439;SDS011;6792;57.698;11.946;2023-05-07T12:45:54;3.02;;;0.90;;
13439;SDS011;6792;57.698;11.946;2023-05-07T12:48:25;1.95;;;1.00;;
13439;SDS011;6792;57.698;11.946;2023-05-07T12:50:55;1.32;;;1.00;;
13439;SDS011;6792;57.698;11.946;2023-05-07T12:53:24;3.37;;;0.93;;
13439;SDS011;6792;57.698;11.946;2023-05-07T12:55:56;1.05;;;1.00;;
13439;SDS011;6792;57.698;11.946;2023-05-07T12:58:27;1.07;;;1.00;;
13439;SDS011;6792;57.698;11.946;2023-05-07T13:01:00;1.20;;;0.98;;
13439;SDS011;6792;57.698;11.946;2023-05-07T13:03:31;1.57;;;0.90;;
13439;SDS011;6792;57.698;11.946;2023-05-07T13:06:02;1.27;;;0.90;;
13439;SDS011;6792;57.698;11.946;2023-05-07T13:08:36;1.77;;;0.93;;
13439;SDS011;6792;57.698;11.946;2023-05-07T13:11:09;1.10;;;0.82;;
13439;SDS011;6792;57.698;11.946;2023-05-07T13:13:39;0.85;;;0.80;;
13439;SDS011;6792;57.698;11.946;2023-05-07T13:16:10;2.80;;;1.15;;
13439;SDS011;6792;57.698;11.946;2023-05-07T13:18:40;1.05;;;0.90;;
13439;SDS011;6792;57.698;11.946;2023-05-07T13:21:11;1.22;;;0.90;;
13439;SDS011;6792;57.698;11.946;2023-05-07T13:23:40;2.90;;;1.00;;
13439;SDS011;6792;57.698;11.946;2023-05-07T13:26:11;0.80;;;0.80;;
13439;SDS011;6792;57.698;11.946;2023-05-07T13:28:41;1.52;;;1.00;;
13439;SDS011;6792;57.698;11.946;2023-05-07T13:31:10;1.80;;;0.93;;
13439;SDS011;6792;57.698;11.946;2023-05-07T13:33:41;1.30;;;0.93;;
13439;SDS011;6792;57.698;11.946;2023-05-07T13:36:11;1.60;;;1.00;;
13439;SDS011;6792;57.698;11.946;2023-05-07T13:38:48;0.80;;;0.80;;
13439;SDS011;6792;57.698;11.946;2023-05-07T13:41:19;1.65;;;1.22;;
13439;SDS011;6792;57.698;11.946;2023-05-07T13:43:50;2.10;;;1.17;;
13439;SDS011;6792;57.698;11.946;2023-05-07T13:46:20;4.33;;;1.22;;
13439;SDS011;6792;57.698;11.946;2023-05-07T13:48:56;1.90;;;0.90;;
13439;SDS011;6792;57.698;11.946;2023-05-07T13:51:25;1.10;;;0.80;;
13439;SDS011;6792;57.698;11.946;2023-05-07T13:53:55;2.58;;;1.00;;
13439;SDS011;6792;57.698;11.946;2023-05-07T13:56:24;2.37;;;1.30;;
13439;SDS011;6792;57.698;11.946;2023-05-07T13:58:58;1.45;;;1.27;;
13439;SDS011;6792;57.698;11.946;2023-05-07T14:01:28;1.12;;;1.10;;
13439;SDS011;6792;57.698;11.946;2023-05-07T14:03:58;1.80;;;1.20;;
13439;SDS011;6792;57.698;11.946;2023-05-07T14:06:27;2.85;;;0.90;;
13439;SDS011;6792;57.698;11.946;2023-05-07T14:08:57;1.67;;;1.15;;
13439;SDS011;6792;57.698;11.946;2023-05-07T14:11:26;3.30;;;0.95;;
13439;SDS011;6792;57.698;11.946;2023-05-07T14:13:56;2.83;;;1.32;;
13439;SDS011;6792;57.698;11.946;2023-05-07T14:16:28;1.52;;;1.30;;
13439;SDS011;6792;57.698;11.946;2023-05-07T14:19:00;1.35;;;1.25;;
13439;SDS011;6792;57.698;11.946;2023-05-07T14:21:30;1.72;;;1.05;;
13439;SDS011;6792;57.698;11.946;2023-05-07T14:24:02;4.83;;;1.90;;
13439;SDS011;6792;57.698;11.946;2023-05-07T14:26:32;2.90;;;1.30;;
13439;SDS011;6792;57.698;11.946;2023-05-07T14:29:02;2.80;;;1.47;;
13439;SDS011;6792;57.698;11.946;2023-05-07T14:31:31;3.10;;;1.60;;
13439;SDS011;6792;57.698;11.946;2023-05-07T14:34:02;2.67;;;1.22;;
13439;SDS011;6792;57.698;11.946;2023-05-07T14:36:31;1.27;;;1.17;;
13439;SDS011;6792;57.698;11.946;2023-05-07T14:39:00;1.92;;;1.30;;
13439;SDS011;6792;57.698;11.946;2023-05-07T14:41:33;5.03;;;1.25;;
13439;SDS011;6792;57.698;11.946;2023-05-07T14:44:02;1.95;;;1.10;;
13439;SDS011;6792;57.698;11.946;2023-05-07T14:46:34;7.25;;;1.12;;
13439;SDS011;6792;57.698;11.946;2023-05-07T14:49:04;1.40;;;1.30;;
13439;SDS011;6792;57.698;11.946;2023-05-07T14:51:35;1.90;;;1.20;;
13439;SDS011;6792;57.698;11.946;2023-05-07T14:54:04;1.60;;;1.30;;
13439;SDS011;6792;57.698;11.946;2023-05-07T14:56:35;2.65;;;1.10;;
13439;SDS011;6792;57.698;11.946;2023-05-07T14:59:04;3.35;;;1.50;;
13439;SDS011;6792;57.698;11.946;2023-05-07T15:01:34;2.52;;;1.40;;
13439;SDS011;6792;57.698;11.946;2023-05-07T15:04:06;1.37;;;1.27;;
13439;SDS011;6792;57.698;11.946;2023-05-07T15:06:38;3.25;;;1.30;;
13439;SDS011;6792;57.698;11.946;2023-05-07T15:09:07;2.17;;;1.47;;
13439;SDS011;6792;57.698;11.946;2023-05-07T15:11:36;5.95;;;2.80;;
13439;SDS011;6792;57.698;11.946;2023-05-07T15:14:06;6.40;;;4.90;;
13439;SDS011;6792;57.698;11.946;2023-05-07T15:16:35;4.25;;;3.85;;
13439;SDS011;6792;57.698;11.946;2023-05-07T15:19:04;4.35;;;2.80;;
13439;SDS011;6792;57.698;11.946;2023-05-07T15:21:38;7.47;;;4.70;;
13439;SDS011;6792;57.698;11.946;2023-05-07T15:24:12;1.75;;;1.65;;